Time;durP1;ratioP1;P1;durP2;ratioP2;P2;SDS_P1;SDS_P2;PMS_P1;PMS_P2;Temp;Humidity;BMP_temperature;BMP_pressure;BME280_temperature;BME280_humidity;BME280_pressure;Samples;Min_cycle;Max_cycle;Signal;HPM_P1;HPM_P2
2024/04/15 00:08:10;;;;;;;29.80;21.58;;;11.30;99.90;;;;;;22641317;26;20035;-39
2024/04/15 00:18:12;;;;;;;35.70;25.05;;;11.40;99.90;;;;;;22553737;26;20023;-39
2024/04/15 00:28:13;;;;;;;30.25;21.85;;;11.60;99.90;;;;;;22600037;26;20006;-39
2024/04/15 00:38:16;;;;;;;24.25;17.63;;;11.40;99.90;;;;;;22607246;26;20095;-40
2024/04/15 00:48:19;;;;;;;20.42;14.13;;;11.30;99.90;;;;;;22668569;26;20031;-39
2024/04/15 00:58:24;;;;;;;16.40;11.98;;;11.50;99.90;;;;;;22650253;26;20034;-39
2024/04/15 01:08:26;;;;;;;13.80;10.27;;;11.70;99.90;;;;;;22591336;26;20029;-39
2024/04/15 01:18:28;;;;;;;15.63;11.00;;;11.70;99.90;;;;;;22714655;26;20022;-39
2024/04/15 01:28:33;;;;;;;18.45;13.35;;;11.90;99.90;;;;;;22714216;26;20026;-39
2024/04/15 01:38:34;;;;;;;16.02;10.27;;;12.20;99.90;;;;;;22667347;26;20065;-39
2024/04/15 01:48:36;;;;;;;15.20;9.70;;;12.10;99.90;;;;;;22642881;26;20030;-39
2024/04/15 01:58:38;;;;;;;9.88;3.88;;;11.70;99.90;;;;;;22698625;26;20030;-39
2024/04/15 02:08:41;;;;;;;4.32;2.78;;;11.90;99.90;;;;;;22709310;26;20087;-39
2024/04/15 02:18:43;;;;;;;7.15;2.38;;;13.50;99.90;;;;;;22712132;26;20010;-39
2024/04/15 02:28:44;;;;;;;3.38;1.90;;;14.50;99.90;;;;;;22708954;26;20022;-39
2024/04/15 02:38:48;;;;;;;4.38;2.38;;;14.40;99.90;;;;;;22631827;26;20175;-39
2024/04/15 02:48:50;;;;;;;7.75;4.13;;;14.30;99.90;;;;;;22635905;26;20027;-40
2024/04/15 02:58:52;;;;;;;7.15;2.60;;;13.60;99.90;;;;;;22696623;26;20016;-39
2024/04/15 03:08:54;;;;;;;9.48;4.82;;;13.80;99.90;;;;;;22708374;26;20022;-39
2024/04/15 03:18:56;;;;;;;10.25;6.85;;;13.10;99.90;;;;;;22707155;26;20002;-39
2024/04/15 03:28:57;;;;;;;13.70;9.00;;;12.40;99.90;;;;;;22674874;26;20026;-39
2024/04/15 03:38:59;;;;;;;12.95;9.18;;;12.30;99.90;;;;;;22660528;26;20084;-39
2024/04/15 03:49:04;;;;;;;12.10;8.48;;;12.10;99.90;;;;;;22661672;26;20042;-39
2024/04/15 03:59:06;;;;;;;12.45;8.82;;;11.60;99.90;;;;;;22666333;26;20021;-38
2024/04/15 04:09:08;;;;;;;10.07;5.05;;;11.50;99.90;;;;;;22704430;26;20087;-38
2024/04/15 04:19:10;;;;;;;14.57;6.57;;;11.50;99.90;;;;;;22672284;26;20092;-38
2024/04/15 04:29:11;;;;;;;8.50;6.30;;;11.50;99.90;;;;;;22713117;26;20096;-39
2024/04/15 04:39:13;;;;;;;12.65;7.47;;;11.70;99.90;;;;;;22663579;26;20007;-39
2024/04/15 04:49:15;;;;;;;12.52;6.50;;;11.70;99.90;;;;;;22565375;26;20509;-39
2024/04/15 04:59:17;;;;;;;11.43;6.47;;;11.50;99.90;;;;;;22579452;26;20080;-39
2024/04/15 05:09:19;;;;;;;18.30;13.80;;;11.50;99.90;;;;;;22635949;26;20026;-39
2024/04/15 05:19:20;;;;;;;19.13;12.55;;;11.70;99.90;;;;;;22653813;26;20475;-38
2024/04/15 05:29:22;;;;;;;12.73;9.02;;;11.90;99.90;;;;;;22713442;26;20029;-39
2024/04/15 05:39:24;;;;;;;10.82;8.40;;;12.20;99.90;;;;;;22562431;26;20034;-40
2024/04/15 05:49:25;;;;;;;20.30;15.90;;;12.50;99.90;;;;;;22527533;26;20034;-40
2024/04/15 05:59:28;;;;;;;22.67;16.08;;;12.80;99.90;;;;;;22563329;26;20035;-40
2024/04/15 06:09:30;;;;;;;21.83;14.57;;;13.20;99.90;;;;;;22562108;26;20035;-39
2024/04/15 06:19:32;;;;;;;20.73;13.48;;;13.70;99.90;;;;;;22558270;26;20089;-39
2024/04/15 06:29:36;;;;;;;19.90;13.90;;;14.00;99.90;;;;;;22559655;26;20027;-40
2024/04/15 06:39:38;;;;;;;13.38;10.85;;;14.30;99.90;;;;;;22558582;26;20096;-39
2024/04/15 06:49:40;;;;;;;17.48;13.07;;;14.80;99.90;;;;;;22552096;26;20480;-39
2024/04/15 06:59:41;;;;;;;15.05;10.93;;;15.60;99.90;;;;;;22557688;26;20365;-40
2024/04/15 07:09:43;;;;;;;12.07;8.95;;;15.70;99.90;;;;;;22559854;26;20027;-40
2024/04/15 07:19:46;;;;;;;10.55;8.20;;;15.70;99.90;;;;;;22558860;26;20011;-40
2024/04/15 07:29:47;;;;;;;10.85;8.65;;;15.90;99.90;;;;;;22707870;26;20104;-40
2024/04/15 07:39:52;;;;;;;10.98;6.88;;;16.00;99.90;;;;;;22565321;26;20168;-41
2024/04/15 07:49:57;;;;;;;8.90;6.85;;;16.00;99.90;;;;;;22547122;26;20290;-41
2024/04/15 08:00:00;;;;;;;11.65;8.35;;;16.40;99.90;;;;;;22546204;26;20010;-41
2024/04/15 08:10:02;;;;;;;12.93;9.95;;;16.60;99.90;;;;;;22550521;26;20034;-41
2024/04/15 08:20:05;;;;;;;14.30;10.90;;;16.60;99.90;;;;;;22550548;26;20130;-41
2024/04/15 08:30:09;;;;;;;14.07;10.73;;;16.50;99.90;;;;;;22548925;26;20030;-42
2024/04/15 08:40:12;;;;;;;11.23;9.45;;;16.70;99.90;;;;;;22634969;26;19998;-41
2024/04/15 08:50:18;;;;;;;12.05;8.68;;;16.90;99.90;;;;;;22541447;26;20492;-41
2024/04/15 09:00:21;;;;;;;10.05;7.57;;;16.90;99.90;;;;;;22544297;26;20089;-39
2024/04/15 09:10:24;;;;;;;6.43;4.93;;;17.30;99.90;;;;;;22543938;26;20117;-41
2024/04/15 09:20:26;;;;;;;8.02;5.63;;;18.20;99.90;;;;;;22569888;26;20002;-44
2024/04/15 09:30:31;;;;;;;10.90;4.68;;;19.00;99.90;;;;;;22675251;26;20002;-41
2024/04/15 09:40:37;;;;;;;9.63;4.95;;;19.30;99.90;;;;;;22566150;26;20543;-41
2024/04/15 09:50:46;;;;;;;6.97;5.43;;;19.30;99.90;;;;;;22564041;26;20031;-41
2024/04/15 10:00:51;;;;;;;9.50;6.78;;;19.70;99.90;;;;;;22559683;26;20507;-42
2024/04/15 10:10:53;;;;;;;9.05;6.90;;;20.10;99.90;;;;;;22561540;26;20049;-42
2024/04/15 10:20:58;;;;;;;11.93;9.82;;;20.40;99.90;;;;;;22554539;26;20410;-41
2024/04/15 10:31:01;;;;;;;13.00;10.52;;;21.10;99.90;;;;;;22554505;26;20559;-42
2024/04/15 10:41:07;;;;;;;14.30;12.15;;;22.00;99.90;;;;;;22561904;26;20003;-41
2024/04/15 10:51:09;;;;;;;19.23;14.02;;;22.00;99.90;;;;;;22556514;26;20093;-41
2024/04/15 11:01:15;;;;;;;16.17;11.60;;;21.40;99.90;;;;;;22552684;26;20027;-41
2024/04/15 11:11:17;;;;;;;16.40;11.90;;;21.10;99.90;;;;;;22556489;26;20062;-41
2024/04/15 11:21:20;;;;;;;23.48;15.43;;;21.00;99.90;;;;;;22560607;26;20343;-41
2024/04/15 11:31:21;;;;;;;19.42;14.45;;;20.90;99.90;;;;;;22509252;26;20031;-43
2024/04/15 11:41:23;;;;;;;18.27;14.02;;;20.80;99.90;;;;;;22446626;26;19999;-41
2024/04/15 11:51:25;;;;;;;18.60;14.38;;;20.50;99.90;;;;;;22442888;26;20002;-41
2024/04/15 12:01:27;;;;;;;16.75;13.90;;;19.90;99.90;;;;;;22489495;26;20174;-39
2024/04/15 12:11:29;;;;;;;17.98;14.02;;;19.30;99.90;;;;;;22551679;26;20134;-41
2024/04/15 12:21:31;;;;;;;16.05;12.00;;;19.20;99.90;;;;;;22510449;26;20038;-42
2024/04/15 12:31:33;;;;;;;14.43;7.88;;;19.40;99.90;;;;;;22544575;26;20772;-41
2024/04/15 12:41:38;;;;;;;10.50;4.72;;;19.10;99.90;;;;;;22545095;26;20034;-40
2024/04/15 12:51:40;;;;;;;17.98;11.57;;;18.90;98.40;;;;;;22527371;26;20445;-41
2024/04/15 13:01:42;;;;;;;14.35;8.43;;;18.20;99.90;;;;;;22564763;26;20439;-41
2024/04/15 13:11:47;;;;;;;20.08;14.95;;;17.80;99.90;;;;;;22591543;26;20109;-41
2024/04/15 13:21:49;;;;;;;20.38;15.52;;;17.30;99.90;;;;;;22561426;26;20315;-41
2024/04/15 13:31:51;;;;;;;20.13;15.48;;;17.20;99.90;;;;;;22555772;26;20778;-40
2024/04/15 13:41:54;;;;;;;25.95;16.85;;;17.20;99.90;;;;;;22552950;26;20073;-40
2024/04/15 13:52:00;;;;;;;25.42;17.92;;;17.40;99.90;;;;;;22564027;26;20027;-40
2024/04/15 14:02:02;;;;;;;21.50;13.40;;;17.30;99.90;;;;;;22542079;26;20050;-42
2024/04/15 14:12:04;;;;;;;22.00;13.65;;;17.50;99.90;;;;;;22556480;26;20042;-41
2024/04/15 14:22:06;;;;;;;17.40;9.73;;;18.00;99.90;;;;;;22559491;26;20031;-42
2024/04/15 14:32:08;;;;;;;14.30;8.70;;;18.10;99.90;;;;;;22555072;26;20026;-40
2024/04/15 14:42:10;;;;;;;16.77;10.57;;;17.20;99.90;;;;;;22558374;26;20027;-40
2024/04/15 14:52:16;;;;;;;19.85;11.82;;;16.70;99.90;;;;;;22554095;26;20034;-39
2024/04/15 15:02:18;;;;;;;18.00;10.50;;;15.90;99.90;;;;;;22548682;26;20463;-39
2024/04/15 15:12:21;;;;;;;13.25;7.97;;;15.50;99.90;;;;;;22552307;26;20067;-40
2024/04/15 15:22:23;;;;;;;9.13;5.97;;;15.70;99.90;;;;;;22557799;26;20088;-40
2024/04/15 15:32:28;;;;;;;10.65;6.45;;;15.90;99.90;;;;;;22551347;26;20105;-40
2024/04/15 15:42:30;;;;;;;8.18;4.78;;;15.80;99.90;;;;;;22553397;26;20027;-39
2024/04/15 15:52:32;;;;;;;9.75;4.78;;;15.60;99.90;;;;;;22517427;26;20026;-40
2024/04/15 16:02:34;;;;;;;10.35;4.30;;;15.10;99.90;;;;;;22547719;26;20384;-39
2024/04/15 16:12:36;;;;;;;14.80;5.90;;;14.60;99.90;;;;;;22523061;26;20027;-39
2024/04/15 16:22:38;;;;;;;12.63;6.90;;;14.10;99.90;;;;;;22555836;26;20084;-39
2024/04/15 16:32:40;;;;;;;13.02;7.35;;;13.80;99.90;;;;;;22541616;26;20518;-39
2024/04/15 16:42:42;;;;;;;14.27;8.50;;;13.40;99.90;;;;;;22552562;26;20030;-39
2024/04/15 16:52:44;;;;;;;13.23;7.78;;;13.00;99.90;;;;;;22597442;26;20034;-40
2024/04/15 17:02:46;;;;;;;15.15;8.68;;;12.60;99.90;;;;;;22700908;26;20013;-39
2024/04/15 17:12:48;;;;;;;13.25;8.70;;;12.30;99.90;;;;;;22699380;26;20088;-39
2024/04/15 17:22:49;;;;;;;19.52;9.63;;;12.00;99.90;;;;;;22662409;26;20030;-39
2024/04/15 17:32:51;;;;;;;19.52;11.65;;;11.80;99.90;;;;;;22578011;26;20369;-38
2024/04/15 17:42:54;;;;;;;22.00;13.27;;;11.70;99.90;;;;;;22592835;26;20031;-38
2024/04/15 17:52:59;;;;;;;18.27;11.18;;;11.50;99.90;;;;;;22611536;26;20034;-39
2024/04/15 18:03:01;;;;;;;24.05;12.45;;;11.30;99.90;;;;;;22572051;26;20112;-39
2024/04/15 18:13:03;;;;;;;17.92;11.48;;;11.10;99.90;;;;;;22578047;26;20030;-39
2024/04/15 18:23:08;;;;;;;12.38;6.25;;;10.90;99.90;;;;;;22605126;26;20567;-39
2024/04/15 18:33:10;;;;;;;9.25;4.90;;;10.80;99.90;;;;;;22559669;26;20031;-39
2024/04/15 18:43:11;;;;;;;8.80;4.03;;;11.00;99.90;;;;;;22558791;26;20038;-39
2024/04/15 18:53:15;;;;;;;6.25;3.45;;;11.00;99.90;;;;;;22580843;26;20091;-39
2024/04/15 19:03:17;;;;;;;6.43;3.55;;;10.90;99.90;;;;;;22660922;26;20458;-38
2024/04/15 19:13:19;;;;;;;4.75;3.08;;;11.30;99.90;;;;;;22655293;26;20034;-39
2024/04/15 19:23:21;;;;;;;6.32;3.33;;;11.30;99.90;;;;;;22612175;26;20092;-39
2024/04/15 19:33:23;;;;;;;6.82;3.38;;;11.00;99.90;;;;;;22706945;26;20033;-39
2024/04/15 19:43:26;;;;;;;7.55;3.22;;;11.00;99.90;;;;;;22604642;26;20093;-39
2024/04/15 19:53:30;;;;;;;6.35;3.42;;;11.50;99.90;;;;;;22611739;26;20022;-38
2024/04/15 20:03:32;;;;;;;4.38;2.72;;;11.00;99.90;;;;;;22589057;26;20026;-39
2024/04/15 20:13:34;;;;;;;6.55;2.70;;;11.30;99.90;;;;;;22655814;26;20026;-38
2024/04/15 20:23:37;;;;;;;6.60;3.38;;;11.40;99.90;;;;;;22670627;26;20026;-39
2024/04/15 20:33:45;;;;;;;8.68;3.30;;;10.90;99.90;;;;;;22667628;26;20093;-38
2024/04/15 20:43:47;;;;;;;8.30;4.10;;;10.70;99.90;;;;;;22656771;26;20042;-39
2024/04/15 20:53:52;;;;;;;7.60;4.32;;;10.70;99.90;;;;;;22614939;26;20111;-38
2024/04/15 21:03:54;;;;;;;9.23;4.78;;;10.30;99.90;;;;;;22700245;26;20026;-39
2024/04/15 21:13:58;;;;;;;9.52;4.47;;;9.90;99.90;;;;;;22712396;26;20131;-39
2024/04/15 21:24:00;;;;;;;8.50;4.68;;;10.00;99.90;;;;;;22681884;26;20082;-39
2024/04/15 21:34:02;;;;;;;6.68;4.20;;;10.10;99.90;;;;;;22583473;26;20027;-39
2024/04/15 21:44:04;;;;;;;6.18;3.90;;;10.60;99.90;;;;;;22704502;26;20483;-38
2024/04/15 21:54:06;;;;;;;6.43;3.60;;;10.70;99.90;;;;;;22656847;26;20026;-38
2024/04/15 22:04:08;;;;;;;8.73;3.70;;;11.30;99.90;;;;;;22576763;26;20112;-38
2024/04/15 22:14:10;;;;;;;9.52;3.85;;;11.30;99.90;;;;;;22672137;26;20402;-39
2024/04/15 22:24:13;;;;;;;8.25;4.47;;;10.90;99.90;;;;;;22708301;26;20123;-39
2024/04/15 22:34:14;;;;;;;7.60;5.00;;;10.90;99.90;;;;;;22669003;26;20096;-39
2024/04/15 22:44:17;;;;;;;10.52;4.93;;;11.10;99.90;;;;;;22703498;26;20096;-38
2024/04/15 22:54:19;;;;;;;8.25;4.88;;;11.10;99.90;;;;;;22655039;26;20480;-39
2024/04/15 23:04:20;;;;;;;10.65;5.10;;;11.10;99.90;;;;;;22708260;26;20042;-39
2024/04/15 23:14:22;;;;;;;9.50;4.43;;;11.00;99.90;;;;;;22707112;26;20034;-39
2024/04/15 23:24:24;;;;;;;9.48;4.53;;;11.20;99.90;;;;;;22674070;26;20032;-39
2024/04/15 23:34:26;;;;;;;10.18;4.18;;;11.30;99.90;;;;;;22567989;26;20445;-39
2024/04/15 23:44:28;;;;;;;8.35;4.38;;;11.20;99.90;;;;;;22702840;26;20077;-39
2024/04/15 23:54:48;;;;;;;10.65;5.10;;;11.40;99.90;;;;;;22635258;26;20156;-38
